createdAt,value
2022-10-23T00:01:46.799Z,8.60
2022-10-23T00:04:20.192Z,12.13
2022-10-23T00:06:48.164Z,19.00
2022-10-23T00:09:17.766Z,16.08
2022-10-23T00:11:48.000Z,15.25
2022-10-23T00:14:16.428Z,10.63
2022-10-23T00:16:43.309Z,18.42
2022-10-23T00:19:10.043Z,11.15
2022-10-23T00:21:37.080Z,49.17
2022-10-23T00:24:04.824Z,17.10
2022-10-23T00:26:31.867Z,53.40
2022-10-23T00:28:58.539Z,44.53
2022-10-23T00:31:26.492Z,18.65
2022-10-23T00:33:53.140Z,21.67
2022-10-23T00:36:21.392Z,22.52
2022-10-23T00:38:49.132Z,10.27
2022-10-23T00:41:21.765Z,8.13
2022-10-23T00:44:08.209Z,22.95
2022-10-23T00:46:37.049Z,23.40
2022-10-23T00:49:05.281Z,18.58
2022-10-23T00:51:38.637Z,28.13
2022-10-23T00:54:22.969Z,26.08
2022-10-23T00:56:53.621Z,14.65
2022-10-23T00:59:20.275Z,11.13
2022-10-23T01:01:47.182Z,5.80
2022-10-23T01:04:14.478Z,4.40
2022-10-23T01:06:52.129Z,6.13
2022-10-23T01:09:22.901Z,6.15
2022-10-23T01:12:16.390Z,7.15
2022-10-23T01:14:54.989Z,8.57
2022-10-23T01:17:24.686Z,7.82
2022-10-23T01:20:14.500Z,7.68
2022-10-23T01:23:02.453Z,7.75
2022-10-23T01:25:47.969Z,7.38
2022-10-23T01:28:24.827Z,7.07
2022-10-23T01:30:51.825Z,8.45
2022-10-23T01:33:32.093Z,9.88
2022-10-23T01:36:06.815Z,8.82
2022-10-23T01:41:40.351Z,8.25
2022-10-23T01:44:40.376Z,6.97
2022-10-23T01:47:10.148Z,7.25
2022-10-23T01:49:53.013Z,7.53
2022-10-23T01:52:21.402Z,46.45
2022-10-23T01:54:53.451Z,52.85
2022-10-23T01:57:23.613Z,51.22
2022-10-23T02:00:04.100Z,38.40
2022-10-23T02:02:34.020Z,31.42
2022-10-23T02:05:08.112Z,30.20
2022-10-23T02:07:35.702Z,31.05
2022-10-23T02:10:05.151Z,8.20
2022-10-23T02:12:46.887Z,34.60
2022-10-23T02:15:24.692Z,32.58
2022-10-23T02:17:57.276Z,30.42
2022-10-23T02:20:28.295Z,18.90
2022-10-23T02:22:59.944Z,16.77
2022-10-23T02:25:39.621Z,5.72
2022-10-23T02:28:13.336Z,7.47
2022-10-23T02:30:47.956Z,11.18
2022-10-23T02:33:15.226Z,6.22
2022-10-23T02:35:42.147Z,6.90
2022-10-23T02:38:41.925Z,9.00
2022-10-23T02:41:31.891Z,11.55
2022-10-23T02:44:24.929Z,8.15
2022-10-23T02:47:09.696Z,5.22
2022-10-23T02:50:07.480Z,3.85
2022-10-23T02:52:42.476Z,4.72
2022-10-23T02:55:12.076Z,5.20
2022-10-23T02:57:56.515Z,5.80
2022-10-23T03:00:24.312Z,8.02
2022-10-23T03:03:00.647Z,7.00
2022-10-23T03:05:34.627Z,6.50
2022-10-23T03:08:04.092Z,11.63
2022-10-23T03:10:31.462Z,15.48
2022-10-23T03:12:58.111Z,20.95
2022-10-23T03:15:25.639Z,19.55
2022-10-23T03:17:52.432Z,20.02
2022-10-23T03:20:19.172Z,33.42
2022-10-23T03:22:46.287Z,53.20
2022-10-23T03:25:13.245Z,35.17
2022-10-23T03:27:40.024Z,24.58
2022-10-23T03:30:10.305Z,24.52
2022-10-23T03:32:39.217Z,13.35
2022-10-23T03:35:06.278Z,38.88
2022-10-23T03:37:33.075Z,15.63
2022-10-23T03:40:02.076Z,23.42
2022-10-23T03:42:31.078Z,37.10
2022-10-23T03:44:57.806Z,28.02
2022-10-23T03:47:24.628Z,22.13
2022-10-23T03:49:51.323Z,35.80
2022-10-23T03:52:18.020Z,33.85
2022-10-23T03:54:44.732Z,23.15
2022-10-23T03:57:11.657Z,21.60
2022-10-23T03:59:38.323Z,22.77
2022-10-23T04:02:06.597Z,12.18
2022-10-23T04:04:33.494Z,14.38
2022-10-23T04:07:00.205Z,19.88
2022-10-23T04:09:27.007Z,12.90
2022-10-23T04:11:55.958Z,10.68
2022-10-23T04:14:26.663Z,11.80
2022-10-23T04:16:53.452Z,9.10
2022-10-23T04:19:20.279Z,13.18
2022-10-23T04:21:47.201Z,9.52
2022-10-23T04:24:14.256Z,10.68
2022-10-23T04:26:41.067Z,9.90
2022-10-23T04:29:10.358Z,11.57
2022-10-23T04:31:37.077Z,8.40
2022-10-23T04:34:03.787Z,8.63
2022-10-23T04:36:31.814Z,6.82
2022-10-23T04:39:07.677Z,6.22
2022-10-23T04:41:34.407Z,6.03
2022-10-23T04:44:01.116Z,7.47
2022-10-23T04:46:27.899Z,9.75
2022-10-23T04:48:54.615Z,10.55
2022-10-23T04:51:29.623Z,9.25
2022-10-23T04:54:05.324Z,21.45
2022-10-23T04:56:55.266Z,40.97
2022-10-23T04:59:22.082Z,33.05
2022-10-23T05:01:49.108Z,16.77
2022-10-23T05:04:16.222Z,17.70
2022-10-23T05:07:01.841Z,12.57
2022-10-23T05:09:47.089Z,7.68
2022-10-23T05:12:26.628Z,11.70
2022-10-23T05:14:54.451Z,8.35
2022-10-23T05:17:26.423Z,7.07
2022-10-23T05:20:00.189Z,7.43
2022-10-23T05:22:31.584Z,8.75
2022-10-23T05:24:58.382Z,7.27
2022-10-23T05:27:26.395Z,15.77
2022-10-23T05:29:54.444Z,15.05
2022-10-23T05:32:27.583Z,7.25
2022-10-23T05:34:55.320Z,8.75
2022-10-23T05:37:25.597Z,6.38
2022-10-23T05:40:00.540Z,6.28
2022-10-23T05:42:27.399Z,6.80
2022-10-23T05:44:56.506Z,8.68
2022-10-23T05:48:16.870Z,6.25
2022-10-23T05:51:11.889Z,9.10
2022-10-23T05:53:54.892Z,13.17
2022-10-23T05:56:55.685Z,6.65
2022-10-23T05:59:30.685Z,6.68
2022-10-23T06:02:20.650Z,6.38
2022-10-23T06:04:56.010Z,7.53
2022-10-23T06:07:29.169Z,6.60
2022-10-23T06:09:59.381Z,6.68
2022-10-23T06:12:26.492Z,6.63
2022-10-23T06:14:53.267Z,6.97
2022-10-23T06:17:22.036Z,8.27
2022-10-23T06:19:48.683Z,7.18
2022-10-23T06:24:55.525Z,6.57
2022-10-23T06:27:26.064Z,7.55
2022-10-23T06:29:54.046Z,8.57
2022-10-23T06:32:21.020Z,7.28
2022-10-23T06:35:00.624Z,13.13
2022-10-23T06:37:28.623Z,13.27
2022-10-23T06:40:06.059Z,10.00
2022-10-23T06:42:49.071Z,9.82
2022-10-23T06:45:36.071Z,9.00
2022-10-23T06:48:15.751Z,17.20
2022-10-23T06:50:45.174Z,9.07
2022-10-23T06:53:15.477Z,10.02
2022-10-23T06:55:51.365Z,12.25
2022-10-23T06:58:21.513Z,28.65
2022-10-23T07:01:12.242Z,11.85
2022-10-23T07:03:40.774Z,21.85
2022-10-23T07:06:10.557Z,28.70
2022-10-23T07:08:38.079Z,30.42
2022-10-23T07:11:17.861Z,45.30
2022-10-23T07:13:47.451Z,52.30
2022-10-23T07:16:22.033Z,43.90
2022-10-23T07:18:58.694Z,46.50
2022-10-23T07:21:34.799Z,42.20
2022-10-23T07:24:19.946Z,29.25
2022-10-23T07:26:47.441Z,33.88
2022-10-23T07:29:14.950Z,25.95
2022-10-23T07:31:42.563Z,36.90
2022-10-23T07:34:28.042Z,30.40
2022-10-23T07:37:13.405Z,46.47
2022-10-23T07:39:40.485Z,35.97
2022-10-23T07:42:07.241Z,50.67
2022-10-23T07:44:34.701Z,29.52
2022-10-23T07:47:01.414Z,33.85
2022-10-23T07:49:28.257Z,56.78
2022-10-23T07:51:58.727Z,30.10
2022-10-23T07:54:31.649Z,21.90
2022-10-23T07:57:17.017Z,29.33
2022-10-23T07:59:48.333Z,33.15
2022-10-23T08:02:20.820Z,27.02
2022-10-23T08:04:50.111Z,27.92
2022-10-23T08:07:32.665Z,18.95
2022-10-23T08:10:00.148Z,9.27
2022-10-23T08:12:28.680Z,29.05
2022-10-23T08:14:56.133Z,31.15
2022-10-23T08:17:26.369Z,27.77
2022-10-23T08:20:03.090Z,11.05
2022-10-23T08:22:37.277Z,22.33
2022-10-23T08:25:04.485Z,18.77
2022-10-23T08:27:31.308Z,7.65
2022-10-23T08:29:58.308Z,5.93
2022-10-23T08:32:29.600Z,10.57
2022-10-23T08:35:00.759Z,16.48
2022-10-23T08:37:30.400Z,8.30
2022-10-23T08:39:57.634Z,18.83
2022-10-23T08:42:52.158Z,20.25
2022-10-23T08:45:43.783Z,11.20
2022-10-23T08:48:41.553Z,9.65
2022-10-23T08:51:43.841Z,10.55
2022-10-23T08:54:26.392Z,6.68
2022-10-23T08:57:00.409Z,5.85
2022-10-23T08:59:40.238Z,8.65
2022-10-23T09:02:27.095Z,13.20
2022-10-23T09:04:55.852Z,9.50
2022-10-23T09:07:37.772Z,8.63
2022-10-23T09:10:32.226Z,10.98
2022-10-23T09:13:06.482Z,6.22
2022-10-23T09:15:45.860Z,5.28
2022-10-23T09:18:15.401Z,9.50
2022-10-23T09:20:45.193Z,9.18
2022-10-23T09:23:24.234Z,9.93
2022-10-23T09:25:57.022Z,5.95
2022-10-23T09:28:43.421Z,5.78
2022-10-23T09:31:12.108Z,5.85
2022-10-23T09:33:39.810Z,8.13
2022-10-23T09:36:13.872Z,8.00
2022-10-23T09:38:50.193Z,6.32
2022-10-23T09:41:25.103Z,6.57
2022-10-23T09:44:07.978Z,5.63
2022-10-23T09:46:38.842Z,5.30
2022-10-23T09:49:07.473Z,4.72
2022-10-23T09:51:34.620Z,3.83
2022-10-23T09:54:01.626Z,4.72
2022-10-23T09:56:34.712Z,4.18
2022-10-23T09:59:06.104Z,4.75
2022-10-23T10:01:36.521Z,5.25
2022-10-23T10:04:38.466Z,3.28
2022-10-23T10:07:24.448Z,3.70
2022-10-23T10:09:53.913Z,4.05
2022-10-23T10:12:43.368Z,4.95
2022-10-23T10:15:25.199Z,4.13
2022-10-23T10:18:21.256Z,5.38
2022-10-23T10:20:50.788Z,3.20
2022-10-23T10:23:25.974Z,3.92
2022-10-23T10:26:23.665Z,4.25
2022-10-23T10:29:10.798Z,3.50
2022-10-23T10:32:05.982Z,5.00
2022-10-23T10:34:46.286Z,4.50
2022-10-23T10:37:15.804Z,6.93
2022-10-23T10:40:25.597Z,4.43
2022-10-23T10:43:11.039Z,5.00
2022-10-23T10:45:41.735Z,3.30
2022-10-23T10:48:17.395Z,2.47
2022-10-23T10:51:38.732Z,3.03
2022-10-23T10:54:17.469Z,3.30
2022-10-23T10:56:45.594Z,2.90
2022-10-23T10:59:21.286Z,3.85
2022-10-23T11:02:01.197Z,2.85
2022-10-23T11:04:44.504Z,2.95
2022-10-23T11:07:21.164Z,2.95
2022-10-23T11:09:47.996Z,4.18
2022-10-23T11:12:18.499Z,3.17
2022-10-23T11:14:45.314Z,3.28
2022-10-23T11:17:40.586Z,2.30
2022-10-23T11:20:26.255Z,2.10
2022-10-23T11:23:04.324Z,1.85
2022-10-23T11:25:49.993Z,4.03
2022-10-23T11:28:39.829Z,2.28
2022-10-23T11:31:24.592Z,2.42
2022-10-23T11:34:00.391Z,2.25
2022-10-23T11:36:56.381Z,1.88
2022-10-23T11:39:30.468Z,2.25
2022-10-23T11:42:04.570Z,4.15
2022-10-23T11:44:45.036Z,5.07
2022-10-23T11:47:40.068Z,2.25
2022-10-23T11:50:07.187Z,4.35
2022-10-23T11:52:45.757Z,2.13
2022-10-23T11:55:22.486Z,4.68
2022-10-23T11:58:07.356Z,2.15
2022-10-23T12:00:38.879Z,3.25
2022-10-23T12:03:15.301Z,4.47
2022-10-23T12:05:44.571Z,3.47
2022-10-23T12:08:25.462Z,2.17
2022-10-23T12:10:53.218Z,3.78
2022-10-23T12:13:31.599Z,4.00
2022-10-23T12:16:00.753Z,5.28
2022-10-23T12:18:28.147Z,3.78
2022-10-23T12:20:59.831Z,4.57
2022-10-23T12:23:34.920Z,7.50
2022-10-23T12:26:23.132Z,4.63
2022-10-23T12:28:59.803Z,3.85
2022-10-23T12:31:51.183Z,5.20
2022-10-23T12:34:42.636Z,6.15
2022-10-23T12:37:09.286Z,3.85
2022-10-23T12:39:39.131Z,6.28
2022-10-23T12:42:27.250Z,4.15
2022-10-23T12:45:01.935Z,4.28
2022-10-23T12:47:30.213Z,5.13
2022-10-23T12:49:57.064Z,4.95
2022-10-23T12:52:25.339Z,3.28
2022-10-23T12:54:52.490Z,3.78
2022-10-23T12:57:25.958Z,3.40
2022-10-23T13:00:00.308Z,4.43
2022-10-23T13:02:29.567Z,4.18
2022-10-23T13:05:01.451Z,3.17
2022-10-23T13:07:31.723Z,2.78
2022-10-23T13:10:02.694Z,2.45
2022-10-23T13:12:35.319Z,4.15
2022-10-23T13:15:08.164Z,3.15
2022-10-23T13:17:40.482Z,5.43
2022-10-23T13:20:16.348Z,2.25
2022-10-23T13:22:43.983Z,3.17
2022-10-23T13:25:40.554Z,2.40
2022-10-23T13:28:19.154Z,3.05
2022-10-23T13:30:57.020Z,3.13
2022-10-23T13:33:36.002Z,3.50
2022-10-23T13:36:23.858Z,4.28
2022-10-23T13:39:00.060Z,3.67
2022-10-23T13:41:36.626Z,2.67
2022-10-23T13:44:03.456Z,2.28
2022-10-23T13:46:30.145Z,3.10
2022-10-23T13:48:56.798Z,3.20
2022-10-23T13:51:29.267Z,4.00
2022-10-23T13:53:57.628Z,2.60
2022-10-23T13:56:26.286Z,3.38
2022-10-23T13:58:53.592Z,3.72
2022-10-23T14:01:28.852Z,2.33
2022-10-23T14:03:57.583Z,2.72
2022-10-23T14:06:24.561Z,3.13
2022-10-23T14:08:51.653Z,2.53
2022-10-23T14:11:19.647Z,3.25
2022-10-23T14:13:47.008Z,2.47
2022-10-23T14:16:16.039Z,6.93
2022-10-23T14:18:42.814Z,5.13
2022-10-23T14:21:12.868Z,2.58
2022-10-23T14:23:39.527Z,3.22
2022-10-23T14:26:11.803Z,1.98
2022-10-23T14:28:39.116Z,5.50
2022-10-23T14:31:14.727Z,3.05
2022-10-23T14:33:43.077Z,2.58
2022-10-23T14:36:10.252Z,5.68
2022-10-23T14:38:37.102Z,5.95
2022-10-23T14:41:10.119Z,2.58
2022-10-23T14:43:36.792Z,4.15
2022-10-23T14:46:30.088Z,4.75
2022-10-23T14:49:01.349Z,2.33
2022-10-23T14:51:30.328Z,3.70
2022-10-23T14:54:01.972Z,3.13
2022-10-23T14:56:30.606Z,2.60
2022-10-23T14:59:02.788Z,2.88
2022-10-23T15:01:37.884Z,3.38
2022-10-23T15:04:05.851Z,3.63
2022-10-23T15:06:33.948Z,2.42
2022-10-23T15:09:00.818Z,2.55
2022-10-23T15:11:27.955Z,3.15
2022-10-23T15:13:55.417Z,3.95
2022-10-23T15:16:23.555Z,3.03
2022-10-23T15:18:50.932Z,8.02
2022-10-23T15:21:18.255Z,4.32
2022-10-23T15:23:45.964Z,2.88
2022-10-23T15:26:19.952Z,2.55
2022-10-23T15:28:57.341Z,3.88
2022-10-23T15:31:41.017Z,2.95
2022-10-23T15:34:14.291Z,3.10
2022-10-23T15:36:42.804Z,2.72
2022-10-23T15:39:10.691Z,5.05
2022-10-23T15:41:39.590Z,3.22
2022-10-23T15:44:08.358Z,4.78
2022-10-23T15:46:35.622Z,4.00
2022-10-23T15:49:02.392Z,5.18
2022-10-23T15:51:29.094Z,9.80
2022-10-23T15:53:57.069Z,6.32
2022-10-23T15:56:24.719Z,6.80
2022-10-23T15:58:51.531Z,7.03
2022-10-23T16:01:18.666Z,5.43
2022-10-23T16:03:45.807Z,5.38
2022-10-23T16:06:14.818Z,6.78
2022-10-23T16:08:43.724Z,5.97
2022-10-23T16:11:17.603Z,4.72
2022-10-23T16:13:44.948Z,4.88
2022-10-23T16:16:12.458Z,5.72
2022-10-23T16:18:39.630Z,5.40
2022-10-23T16:21:07.485Z,4.35
2022-10-23T16:23:34.444Z,5.65
2022-10-23T16:26:05.972Z,4.32
2022-10-23T16:28:33.229Z,4.22
2022-10-23T16:31:00.352Z,4.05
2022-10-23T16:33:27.031Z,4.53
2022-10-23T16:35:53.770Z,5.95
2022-10-23T16:38:22.837Z,6.85
2022-10-23T16:40:53.899Z,12.05
2022-10-23T16:43:38.728Z,15.45
2022-10-23T16:48:50.362Z,8.38
2022-10-23T16:51:20.267Z,8.43
2022-10-23T16:53:47.733Z,8.25
2022-10-23T16:56:18.288Z,6.05
2022-10-23T16:58:45.142Z,7.45
2022-10-23T17:01:18.646Z,9.07
2022-10-23T17:03:48.318Z,4.65
2022-10-23T17:06:18.918Z,6.30
2022-10-23T17:08:45.852Z,5.20
2022-10-23T17:11:16.062Z,8.23
2022-10-23T17:13:46.248Z,7.00
2022-10-23T17:16:14.254Z,7.43
2022-10-23T17:18:43.931Z,5.32
2022-10-23T17:21:12.214Z,9.30
2022-10-23T17:23:38.980Z,3.42
2022-10-23T17:26:12.644Z,4.90
2022-10-23T17:28:42.290Z,4.65
2022-10-23T17:31:17.016Z,3.65
2022-10-23T17:33:45.081Z,5.93
2022-10-23T17:36:13.676Z,4.50
2022-10-23T17:38:43.456Z,5.88
2022-10-23T17:41:12.463Z,7.47
2022-10-23T17:43:39.593Z,7.10
2022-10-23T17:46:08.010Z,4.53
2022-10-23T17:48:35.171Z,4.90
2022-10-23T17:51:03.221Z,4.78
2022-10-23T17:53:30.356Z,7.03
2022-10-23T17:55:57.540Z,5.28
2022-10-23T17:58:24.170Z,4.97
2022-10-23T18:00:50.889Z,6.22
2022-10-23T18:03:19.930Z,4.53
2022-10-23T18:05:46.924Z,6.40
2022-10-23T18:08:13.659Z,5.93
2022-10-23T18:10:40.341Z,4.80
2022-10-23T18:13:06.997Z,4.50
2022-10-23T18:15:35.250Z,4.90
2022-10-23T18:18:07.763Z,7.50
2022-10-23T18:20:40.981Z,7.05
2022-10-23T18:23:08.151Z,6.03
2022-10-23T18:25:35.097Z,13.43
2022-10-23T18:28:02.657Z,7.10
2022-10-23T18:30:29.547Z,4.88
2022-10-23T18:32:58.138Z,5.72
2022-10-23T18:35:25.276Z,5.95
2022-10-23T18:37:52.003Z,8.40
2022-10-23T18:40:18.856Z,6.03
2022-10-23T18:42:45.688Z,3.90
2022-10-23T18:45:13.769Z,7.47
2022-10-23T18:47:40.438Z,8.30
2022-10-23T18:50:07.744Z,6.03
2022-10-23T18:52:34.497Z,6.85
2022-10-23T18:55:01.197Z,4.85
2022-10-23T18:57:27.834Z,5.47
2022-10-23T18:59:57.637Z,6.25
2022-10-23T19:02:24.393Z,5.78
2022-10-23T19:04:51.255Z,7.63
2022-10-23T19:07:18.693Z,6.20
2022-10-23T19:09:45.614Z,6.90
2022-10-23T19:12:15.251Z,5.63
2022-10-23T19:14:41.908Z,6.38
2022-10-23T19:17:19.532Z,10.25
2022-10-23T19:19:50.368Z,4.05
2022-10-23T19:22:17.815Z,6.88
2022-10-23T19:24:50.685Z,5.20
2022-10-23T19:27:19.343Z,7.82
2022-10-23T19:29:50.109Z,4.97
2022-10-23T19:32:16.889Z,4.50
2022-10-23T19:34:44.093Z,6.15
2022-10-23T19:37:11.029Z,5.82
2022-10-23T19:39:38.522Z,5.60
2022-10-23T19:42:05.897Z,7.78
2022-10-23T19:44:32.628Z,7.85
2022-10-23T19:46:59.333Z,6.78
2022-10-23T19:49:26.070Z,8.27
2022-10-23T19:51:52.751Z,7.28
2022-10-23T19:54:21.290Z,10.15
2022-10-23T19:56:48.977Z,11.60
2022-10-23T19:59:15.871Z,5.15
2022-10-23T20:01:45.161Z,7.00
2022-10-23T20:04:15.860Z,7.22
2022-10-23T20:06:42.600Z,5.70
2022-10-23T20:09:09.990Z,3.03
2022-10-23T20:11:38.981Z,5.25
2022-10-23T20:14:06.651Z,8.23
2022-10-23T20:16:36.501Z,4.45
2022-10-23T20:19:07.374Z,8.55
2022-10-23T20:21:39.022Z,13.10
2022-10-23T20:24:06.709Z,4.80
2022-10-23T20:26:33.809Z,6.25
2022-10-23T20:29:00.748Z,7.03
2022-10-23T20:31:28.080Z,8.90
2022-10-23T20:33:55.942Z,8.57
2022-10-23T20:36:26.198Z,6.53
2022-10-23T20:38:53.556Z,5.82
2022-10-23T20:41:21.011Z,10.48
2022-10-23T20:43:47.893Z,7.30
2022-10-23T20:46:15.010Z,6.18
2022-10-23T20:48:44.417Z,9.93
2022-10-23T20:51:17.031Z,4.85
2022-10-23T20:53:45.114Z,4.78
2022-10-23T20:56:18.948Z,3.80
2022-10-23T20:58:47.600Z,6.72
2022-10-23T21:01:16.895Z,8.98
2022-10-23T21:03:44.893Z,6.93
2022-10-23T21:06:14.669Z,3.78
2022-10-23T21:08:42.514Z,3.50
2022-10-23T21:11:15.946Z,3.53
2022-10-23T21:13:44.154Z,5.50
2022-10-23T21:16:28.489Z,2.80
2022-10-23T21:18:57.181Z,8.20
2022-10-23T21:21:24.334Z,4.05
2022-10-23T21:23:52.763Z,4.22
2022-10-23T21:26:22.646Z,9.65
2022-10-23T21:28:56.346Z,2.72
2022-10-23T21:31:37.688Z,6.65
2022-10-23T21:34:04.798Z,5.43
2022-10-23T21:36:34.302Z,5.57
2022-10-23T21:39:06.985Z,4.82
2022-10-23T21:41:34.644Z,5.03
2022-10-23T21:44:04.545Z,5.28
2022-10-23T21:46:33.149Z,3.63
2022-10-23T21:49:00.585Z,3.05
2022-10-23T21:51:29.547Z,3.33
2022-10-23T21:53:57.655Z,3.97
2022-10-23T21:56:39.858Z,4.97
2022-10-23T21:59:12.949Z,4.30
2022-10-23T22:01:41.931Z,5.53
2022-10-23T22:04:09.903Z,4.38
2022-10-23T22:06:37.831Z,4.60
2022-10-23T22:09:06.432Z,5.88
2022-10-23T22:11:33.594Z,2.92
2022-10-23T22:14:01.261Z,3.67
2022-10-23T22:16:28.295Z,4.25
2022-10-23T22:18:55.339Z,7.70
2022-10-23T22:21:24.710Z,4.63
2022-10-23T22:23:54.773Z,3.10
2022-10-23T22:26:27.092Z,2.45
2022-10-23T22:28:57.740Z,3.25
2022-10-23T22:31:27.288Z,5.75
2022-10-23T22:33:55.684Z,2.30
2022-10-23T22:36:22.965Z,5.28
2022-10-23T22:38:49.720Z,5.32
2022-10-23T22:41:17.401Z,4.40
2022-10-23T22:43:45.009Z,4.43
2022-10-23T22:46:17.372Z,4.18
2022-10-23T22:48:45.328Z,4.10
2022-10-23T22:51:14.439Z,5.63
2022-10-23T22:53:42.091Z,5.30
2022-10-23T22:56:11.783Z,1.55
2022-10-23T22:58:38.942Z,3.08
2022-10-23T23:01:11.890Z,5.03
2022-10-23T23:03:39.296Z,3.75
2022-10-23T23:06:07.838Z,4.60
2022-10-23T23:08:35.734Z,4.47
2022-10-23T23:11:03.707Z,4.57
2022-10-23T23:13:31.838Z,7.07
2022-10-23T23:15:59.229Z,3.67
2022-10-23T23:18:26.455Z,2.45
2022-10-23T23:20:53.444Z,5.72
2022-10-23T23:23:20.687Z,3.42
2022-10-23T23:25:49.652Z,3.47
2022-10-23T23:28:19.633Z,3.92
2022-10-23T23:30:48.015Z,3.97
2022-10-23T23:33:19.179Z,3.33
2022-10-23T23:35:46.954Z,4.47
2022-10-23T23:38:14.456Z,5.20
2022-10-23T23:40:41.239Z,3.72
2022-10-23T23:43:08.005Z,9.18
2022-10-23T23:45:34.890Z,4.72
2022-10-23T23:48:01.590Z,3.58
2022-10-23T23:50:28.293Z,1.92
2022-10-23T23:52:55.178Z,4.63
2022-10-23T23:55:21.830Z,4.60
2022-10-23T23:57:48.816Z,4.55
